createdAt,value
2018-11-11T00:01:58.168Z,18.87
2018-11-11T00:04:27.978Z,18.13
2018-11-11T00:06:57.997Z,19.47
2018-11-11T00:09:27.912Z,27.63
2018-11-11T00:11:57.822Z,25.60
2018-11-11T00:14:27.744Z,24.17
2018-11-11T00:16:57.767Z,22.30
2018-11-11T00:19:27.776Z,20.30
2018-11-11T00:21:57.731Z,34.27
2018-11-11T00:24:27.664Z,19.93
2018-11-11T00:26:57.635Z,26.17
2018-11-11T00:29:27.579Z,20.67
2018-11-11T00:31:57.562Z,23.23
2018-11-11T00:34:27.406Z,21.67
2018-11-11T00:36:57.295Z,24.30
2018-11-11T00:39:27.301Z,20.77
2018-11-11T00:41:57.115Z,19.97
2018-11-11T00:44:27.028Z,18.13
2018-11-11T00:46:57.083Z,11.77
2018-11-11T00:49:27.067Z,11.73
2018-11-11T00:51:57.070Z,13.83
2018-11-11T00:54:26.947Z,15.27
2018-11-11T00:56:56.912Z,10.67
2018-11-11T00:59:26.868Z,11.30
2018-11-11T01:01:56.893Z,9.37
2018-11-11T01:04:26.800Z,11.57
2018-11-11T01:06:56.672Z,14.53
2018-11-11T01:09:26.591Z,10.17
2018-11-11T01:11:56.411Z,11.83
2018-11-11T01:14:26.424Z,9.50
2018-11-11T01:16:56.490Z,11.80
2018-11-11T01:19:26.454Z,8.73
2018-11-11T01:21:56.364Z,13.43
2018-11-11T01:24:26.202Z,10.57
2018-11-11T01:26:56.199Z,13.40
2018-11-11T01:29:26.169Z,8.20
2018-11-11T01:31:56.152Z,7.63
2018-11-11T01:34:26.156Z,11.10
2018-11-11T01:36:56.060Z,9.27
2018-11-11T01:39:25.980Z,6.13
2018-11-11T01:41:55.791Z,8.10
2018-11-11T01:44:25.695Z,6.40
2018-11-11T01:46:55.763Z,10.73
2018-11-11T01:49:25.693Z,9.30
2018-11-11T01:51:55.694Z,10.13
2018-11-11T01:54:25.563Z,10.10
2018-11-11T01:56:55.587Z,11.63
2018-11-11T01:59:25.641Z,21.20
2018-11-11T02:01:55.520Z,16.37
2018-11-11T02:04:25.422Z,11.13
2018-11-11T02:06:55.352Z,13.17
2018-11-11T02:09:25.263Z,16.43
2018-11-11T02:11:55.077Z,20.07
2018-11-11T02:14:24.994Z,20.10
2018-11-11T02:16:55.011Z,18.00
2018-11-11T02:19:24.877Z,29.53
2018-11-11T02:21:54.775Z,19.20
2018-11-11T02:24:24.646Z,20.07
2018-11-11T02:26:54.670Z,21.33
2018-11-11T02:29:24.479Z,26.13
2018-11-11T02:31:54.395Z,18.77
2018-11-11T02:34:24.352Z,33.23
2018-11-11T02:36:54.230Z,31.83
2018-11-11T02:39:24.143Z,19.07
2018-11-11T02:41:53.960Z,27.50
2018-11-11T02:44:23.884Z,22.13
2018-11-11T02:46:53.928Z,31.57
2018-11-11T02:49:23.798Z,30.47
2018-11-11T02:51:53.712Z,21.77
2018-11-11T02:54:23.584Z,25.80
2018-11-11T02:56:53.547Z,29.80
2018-11-11T02:59:23.399Z,30.53
2018-11-11T03:01:53.376Z,18.83
2018-11-11T03:04:23.387Z,24.07
2018-11-11T03:06:53.211Z,19.87
2018-11-11T03:09:23.247Z,28.03
2018-11-11T03:11:53.178Z,31.33
2018-11-11T03:14:23.153Z,40.50
2018-11-11T03:16:53.211Z,36.87
2018-11-11T03:19:23.388Z,41.50
2018-11-11T03:21:53.311Z,37.70
2018-11-11T03:24:23.267Z,34.87
2018-11-11T03:26:54.272Z,31.27
2018-11-11T03:29:24.121Z,26.97
2018-11-11T03:31:54.104Z,17.90
2018-11-11T03:34:24.155Z,15.33
2018-11-11T03:36:54.088Z,22.60
2018-11-11T03:39:24.187Z,22.13
2018-11-11T03:41:54.068Z,28.87
2018-11-11T03:44:23.979Z,31.67
2018-11-11T03:46:54.039Z,28.53
2018-11-11T03:49:24.021Z,26.67
2018-11-11T03:51:54.154Z,31.47
2018-11-11T03:54:24.088Z,30.93
2018-11-11T03:56:54.072Z,32.20
2018-11-11T03:59:23.980Z,28.33
2018-11-11T04:01:53.848Z,27.57
2018-11-11T04:04:23.807Z,29.17
2018-11-11T04:06:53.727Z,28.77
2018-11-11T04:09:23.640Z,28.63
2018-11-11T04:11:53.610Z,32.37
2018-11-11T04:14:23.581Z,36.27
2018-11-11T04:16:53.592Z,31.57
2018-11-11T04:19:23.412Z,36.50
2018-11-11T04:21:53.418Z,24.73
2018-11-11T04:24:23.375Z,35.00
2018-11-11T04:26:53.356Z,31.00
2018-11-11T04:29:23.322Z,37.13
2018-11-11T04:31:53.288Z,32.00
2018-11-11T04:34:23.200Z,34.17
2018-11-11T04:36:53.214Z,36.07
2018-11-11T04:39:23.218Z,32.83
2018-11-11T04:41:53.059Z,31.83
2018-11-11T04:44:23.004Z,34.93
2018-11-11T04:46:53.903Z,28.50
2018-11-11T04:49:23.820Z,29.47
2018-11-11T04:51:53.650Z,32.90
2018-11-11T04:54:23.647Z,41.37
2018-11-11T04:56:53.689Z,32.90
2018-11-11T04:59:23.634Z,27.97
2018-11-11T05:01:53.599Z,35.27
2018-11-11T05:04:23.406Z,41.43
2018-11-11T05:06:53.422Z,22.03
2018-11-11T05:09:23.383Z,38.10
2018-11-11T05:11:53.260Z,29.87
2018-11-11T05:14:23.375Z,31.70
2018-11-11T05:16:53.296Z,33.97
2018-11-11T05:19:23.208Z,34.00
2018-11-11T05:21:53.182Z,39.93
2018-11-11T05:24:23.105Z,34.33
2018-11-11T05:26:53.095Z,31.20
2018-11-11T05:29:23.072Z,41.33
2018-11-11T05:31:52.984Z,30.27
2018-11-11T05:34:22.803Z,35.80
2018-11-11T05:36:52.816Z,27.47
2018-11-11T05:39:22.780Z,31.13
2018-11-11T05:41:52.748Z,31.97
2018-11-11T05:44:22.663Z,26.63
2018-11-11T05:46:52.596Z,34.00
2018-11-11T05:49:22.595Z,33.97
2018-11-11T05:51:52.552Z,31.03
2018-11-11T05:54:22.531Z,33.83
2018-11-11T05:56:52.543Z,28.60
2018-11-11T05:59:22.416Z,25.07
2018-11-11T06:01:52.376Z,24.00
2018-11-11T06:04:22.341Z,26.07
2018-11-11T06:06:52.307Z,23.23
2018-11-11T06:09:22.258Z,23.80
2018-11-11T06:11:52.136Z,28.97
2018-11-11T06:14:22.056Z,25.07
2018-11-11T06:16:52.124Z,24.57
2018-11-11T06:19:22.096Z,23.87
2018-11-11T06:21:52.309Z,25.03
2018-11-11T06:24:22.223Z,22.27
2018-11-11T06:26:53.450Z,30.73
2018-11-11T06:29:23.278Z,29.70
2018-11-11T06:31:53.196Z,35.33
2018-11-11T06:34:23.154Z,27.23
2018-11-11T06:36:54.154Z,25.73
2018-11-11T06:39:23.963Z,20.47
2018-11-11T06:41:53.882Z,23.90
2018-11-11T06:44:23.876Z,23.33
2018-11-11T06:46:53.818Z,23.90
2018-11-11T06:49:23.751Z,23.57
2018-11-11T06:51:53.648Z,21.17
2018-11-11T06:54:23.766Z,28.30
2018-11-11T06:56:53.681Z,22.13
2018-11-11T06:59:23.854Z,21.47
2018-11-11T07:01:53.970Z,25.80
2018-11-11T07:04:23.829Z,21.40
2018-11-11T07:06:53.747Z,19.67
2018-11-11T07:09:23.565Z,21.10
2018-11-11T07:11:53.581Z,18.63
2018-11-11T07:14:23.533Z,25.20
2018-11-11T07:16:53.402Z,24.83
2018-11-11T07:19:23.325Z,21.30
2018-11-11T07:21:53.419Z,19.00
2018-11-11T07:24:23.378Z,15.67
2018-11-11T07:26:53.482Z,28.90
2018-11-11T07:29:23.416Z,20.40
2018-11-11T07:31:53.407Z,20.53
2018-11-11T07:34:23.363Z,19.33
2018-11-11T07:36:53.296Z,27.17
2018-11-11T07:39:23.294Z,31.10
2018-11-11T07:41:53.167Z,21.43
2018-11-11T07:44:23.088Z,32.30
2018-11-11T07:46:53.014Z,25.23
2018-11-11T07:49:22.967Z,18.57
2018-11-11T07:51:53.035Z,21.00
2018-11-11T07:54:22.904Z,26.40
2018-11-11T07:56:52.872Z,28.27
2018-11-11T07:59:23.010Z,21.97
2018-11-11T08:01:53.014Z,16.20
2018-11-11T08:04:22.959Z,22.73
2018-11-11T08:06:52.842Z,21.40
2018-11-11T08:09:22.857Z,24.30
2018-11-11T08:12:11.766Z,31.60
2018-11-11T08:14:41.681Z,15.90
2018-11-11T08:17:11.642Z,21.83
2018-11-11T08:19:41.455Z,20.40
2018-11-11T08:22:11.368Z,26.63
2018-11-11T08:24:41.203Z,21.63
2018-11-11T08:27:11.204Z,19.20
2018-11-11T08:29:41.183Z,29.33
2018-11-11T08:32:11.135Z,31.57
2018-11-11T08:34:41.056Z,19.17
2018-11-11T08:37:10.964Z,19.43
2018-11-11T08:39:40.878Z,20.17
2018-11-11T08:42:10.698Z,21.17
2018-11-11T08:44:40.608Z,20.60
2018-11-11T08:47:10.662Z,24.73
2018-11-11T08:49:40.536Z,24.07
2018-11-11T08:52:10.455Z,24.30
2018-11-11T08:54:40.267Z,14.57
2018-11-11T08:57:10.235Z,16.40
2018-11-11T08:59:40.168Z,16.20
2018-11-11T09:02:10.113Z,13.13
2018-11-11T09:04:40.085Z,20.97
2018-11-11T09:07:09.998Z,15.63
2018-11-11T09:09:39.913Z,10.07
2018-11-11T09:12:09.883Z,12.53
2018-11-11T09:14:39.893Z,13.40
2018-11-11T09:17:10.052Z,13.00
2018-11-11T09:19:40.118Z,14.57
2018-11-11T09:22:10.970Z,9.87
2018-11-11T09:24:40.884Z,8.67
2018-11-11T09:27:10.939Z,13.70
2018-11-11T09:29:40.920Z,14.80
2018-11-11T09:32:10.831Z,13.77
2018-11-11T09:34:40.608Z,14.57
2018-11-11T09:37:10.599Z,11.33
2018-11-11T09:39:40.580Z,10.57
2018-11-11T09:42:10.537Z,13.40
2018-11-11T09:44:40.420Z,12.93
2018-11-11T09:47:10.452Z,9.87
2018-11-11T09:49:40.355Z,9.63
2018-11-11T09:52:10.725Z,11.93
2018-11-11T09:54:40.575Z,10.53
2018-11-11T09:57:10.533Z,13.67
2018-11-11T09:59:40.543Z,13.87
2018-11-11T10:02:11.108Z,12.30
2018-11-11T10:04:45.900Z,11.93
2018-11-11T10:07:26.594Z,12.47
2018-11-11T10:10:01.525Z,12.03
2018-11-11T10:12:36.660Z,10.97
2018-11-11T10:17:16.525Z,15.40
2018-11-11T10:19:51.260Z,13.50
2018-11-11T10:22:30.487Z,13.23
2018-11-11T10:25:16.143Z,13.47
2018-11-11T10:27:51.623Z,11.17
2018-11-11T10:32:29.532Z,11.87
2018-11-11T10:35:12.191Z,8.97
2018-11-11T10:38:18.250Z,13.27
2018-11-11T10:40:57.235Z,9.05
2018-11-11T10:43:34.934Z,9.33
2018-11-11T10:46:09.354Z,7.92
2018-11-11T10:48:46.334Z,5.08
2018-11-11T10:51:16.302Z,7.65
2018-11-11T10:53:46.132Z,6.95
2018-11-11T10:56:16.636Z,8.88
2018-11-11T10:58:46.655Z,3.42
2018-11-11T11:02:22.164Z,6.08
2018-11-11T11:04:57.048Z,5.78
2018-11-11T11:07:27.095Z,8.05
2018-11-11T11:09:58.139Z,7.25
2018-11-11T11:12:27.969Z,5.08
2018-11-11T11:14:57.925Z,9.30
2018-11-11T11:17:27.842Z,5.42
2018-11-11T11:19:57.767Z,11.23
2018-11-11T11:22:27.618Z,9.40
2018-11-11T11:24:57.547Z,20.17
2018-11-11T11:27:27.459Z,9.73
2018-11-11T11:29:57.420Z,7.67
2018-11-11T11:32:27.766Z,5.10
2018-11-11T11:34:57.595Z,7.07
2018-11-11T11:37:27.674Z,3.93
2018-11-11T11:39:57.487Z,7.30
2018-11-11T11:42:27.402Z,3.53
2018-11-11T11:44:57.387Z,3.13
2018-11-11T11:47:27.200Z,4.43
2018-11-11T11:49:57.129Z,1.77
2018-11-11T11:52:27.011Z,2.20
2018-11-11T11:54:56.620Z,2.40
2018-11-11T11:57:26.240Z,2.25
2018-11-11T11:59:56.028Z,2.45
2018-11-11T12:02:26.008Z,2.05
2018-11-11T12:04:55.756Z,2.83
2018-11-11T12:07:25.892Z,2.15
2018-11-11T12:09:55.807Z,4.53
2018-11-11T12:12:25.777Z,3.00
2018-11-11T12:14:55.740Z,4.05
2018-11-11T12:17:25.594Z,3.77
2018-11-11T12:19:55.519Z,3.72
2018-11-11T12:22:25.290Z,4.83
2018-11-11T12:24:55.240Z,6.72
2018-11-11T12:27:25.300Z,4.08
2018-11-11T12:29:55.275Z,3.25
2018-11-11T12:32:25.296Z,3.37
2018-11-11T12:34:55.225Z,4.10
2018-11-11T12:37:25.231Z,6.37
2018-11-11T12:39:55.257Z,4.53
2018-11-11T12:42:25.007Z,7.28
2018-11-11T12:44:55.047Z,6.30
2018-11-11T12:47:25.863Z,3.55
2018-11-11T12:49:55.724Z,6.15
2018-11-11T12:52:25.631Z,6.65
2018-11-11T12:54:55.593Z,5.97
2018-11-11T12:57:26.533Z,4.12
2018-11-11T12:59:56.603Z,6.40
2018-11-11T13:02:26.545Z,7.12
2018-11-11T13:04:56.971Z,5.50
2018-11-11T13:07:27.169Z,6.05
2018-11-11T13:09:57.054Z,5.53
2018-11-11T13:12:27.110Z,4.70
2018-11-11T13:14:57.048Z,7.05
2018-11-11T13:17:27.078Z,5.85
2018-11-11T13:19:56.971Z,6.90
2018-11-11T13:22:27.088Z,5.30
2018-11-11T13:24:56.884Z,4.10
2018-11-11T13:27:26.803Z,4.22
2018-11-11T13:29:56.631Z,3.47
2018-11-11T13:32:26.628Z,4.42
2018-11-11T13:34:56.597Z,5.25
2018-11-11T13:37:26.417Z,4.53
2018-11-11T13:39:56.519Z,4.58
2018-11-11T13:42:26.449Z,4.75
2018-11-11T13:44:56.452Z,6.87
2018-11-11T13:47:26.382Z,6.67
2018-11-11T13:49:56.164Z,3.50
2018-11-11T13:52:26.090Z,5.03
2018-11-11T13:54:56.019Z,5.92
2018-11-11T13:57:25.882Z,4.50
2018-11-11T13:59:55.952Z,4.90
2018-11-11T14:02:25.886Z,5.35
2018-11-11T14:04:56.248Z,4.97
2018-11-11T14:07:26.299Z,4.20
2018-11-11T14:09:56.231Z,4.17
2018-11-11T14:12:26.211Z,5.12
2018-11-11T14:14:56.164Z,4.42
2018-11-11T14:17:26.268Z,4.35
2018-11-11T14:19:56.198Z,4.20
2018-11-11T14:22:26.480Z,4.70
2018-11-11T14:24:56.463Z,6.10
2018-11-11T14:27:26.356Z,6.00
2018-11-11T14:29:56.354Z,4.57
2018-11-11T14:32:26.383Z,4.70
2018-11-11T14:34:56.248Z,6.17
2018-11-11T14:37:27.385Z,5.50
2018-11-11T14:39:57.372Z,7.50
2018-11-11T14:42:27.275Z,6.47
2018-11-11T14:44:57.287Z,5.90
2018-11-11T14:47:28.335Z,6.97
2018-11-11T14:49:58.495Z,6.77
2018-11-11T14:52:28.561Z,7.23
2018-11-11T14:54:58.324Z,5.43
2018-11-11T14:57:28.387Z,10.27
2018-11-11T14:59:58.318Z,7.53
2018-11-11T15:02:28.170Z,6.13
2018-11-11T15:04:58.012Z,8.27
2018-11-11T15:07:28.307Z,7.80
2018-11-11T15:09:58.271Z,4.77
2018-11-11T15:12:28.406Z,3.40
2018-11-11T15:14:58.321Z,3.03
2018-11-11T15:17:28.204Z,4.50
2018-11-11T15:19:58.337Z,3.17
2018-11-11T15:22:28.127Z,6.13
2018-11-11T15:24:58.132Z,2.43
2018-11-11T15:27:27.993Z,4.97
2018-11-11T15:29:57.862Z,4.03
2018-11-11T15:32:27.818Z,4.40
2018-11-11T15:34:57.682Z,4.47
2018-11-11T15:37:27.676Z,5.90
2018-11-11T15:39:57.617Z,8.13
2018-11-11T15:42:27.744Z,5.13
2018-11-11T15:44:57.710Z,7.60
2018-11-11T15:47:27.712Z,4.80
2018-11-11T15:49:57.966Z,7.67
2018-11-11T15:52:27.952Z,7.27
2018-11-11T15:54:57.931Z,6.80
2018-11-11T15:57:27.988Z,9.20
2018-11-11T15:59:57.915Z,6.60
2018-11-11T16:02:27.817Z,9.40
2018-11-11T16:04:57.792Z,13.03
2018-11-11T16:07:27.839Z,9.07
2018-11-11T16:09:58.231Z,8.13
2018-11-11T16:12:28.510Z,9.70
2018-11-11T16:14:58.876Z,11.00
2018-11-11T16:17:29.393Z,7.30
2018-11-11T16:20:00.453Z,12.37
2018-11-11T16:22:31.226Z,9.63
2018-11-11T16:25:01.896Z,12.33
2018-11-11T16:27:32.634Z,10.33
2018-11-11T16:30:04.301Z,8.30
2018-11-11T16:32:35.102Z,10.33
2018-11-11T16:35:06.348Z,9.77
2018-11-11T16:37:37.326Z,8.20
2018-11-11T16:40:11.530Z,6.27
2018-11-11T16:42:42.381Z,8.27
2018-11-11T16:45:15.357Z,10.20
2018-11-11T16:47:46.578Z,12.30
2018-11-11T16:50:19.157Z,9.33
2018-11-11T16:52:50.159Z,10.73
2018-11-11T16:55:23.651Z,15.33
2018-11-11T16:57:54.049Z,14.97
2018-11-11T17:00:25.239Z,11.90
2018-11-11T17:02:56.517Z,15.20
2018-11-11T17:05:27.598Z,12.87
2018-11-11T17:07:57.564Z,10.93
2018-11-11T17:10:28.763Z,18.27
2018-11-11T17:12:59.946Z,12.77
2018-11-11T17:15:30.916Z,13.90
2018-11-11T17:18:01.271Z,14.57
2018-11-11T17:20:32.080Z,13.83
2018-11-11T17:23:04.695Z,15.27
2018-11-11T17:25:34.723Z,16.07
2018-11-11T17:28:04.864Z,16.20
2018-11-11T17:30:34.743Z,18.03
2018-11-11T17:33:05.816Z,17.03
2018-11-11T17:35:35.610Z,15.70
2018-11-11T17:38:06.170Z,17.77
2018-11-11T17:40:36.378Z,19.93
2018-11-11T17:43:06.618Z,17.20
2018-11-11T17:45:36.942Z,13.33
2018-11-11T17:48:08.319Z,21.27
2018-11-11T17:50:38.268Z,15.93
2018-11-11T17:53:08.225Z,29.40
2018-11-11T17:55:38.131Z,14.73
2018-11-11T17:58:09.574Z,14.27
2018-11-11T18:00:41.090Z,17.57
2018-11-11T18:03:12.804Z,12.57
2018-11-11T18:05:43.021Z,12.13
2018-11-11T18:08:13.008Z,12.07
2018-11-11T18:10:44.206Z,16.43
2018-11-11T18:13:14.163Z,16.83
2018-11-11T18:15:44.058Z,14.60
2018-11-11T18:18:14.083Z,15.70
2018-11-11T18:20:44.106Z,20.70
2018-11-11T18:23:13.962Z,25.13
2018-11-11T18:25:43.927Z,20.40
2018-11-11T18:28:13.889Z,28.00
2018-11-11T18:30:43.859Z,18.00
2018-11-11T18:33:13.822Z,16.73
2018-11-11T18:35:43.791Z,13.43
2018-11-11T18:38:13.811Z,9.27
2018-11-11T18:40:43.724Z,17.40
2018-11-11T18:43:13.352Z,15.30
2018-11-11T18:45:42.993Z,17.77
2018-11-11T18:48:12.584Z,31.23
2018-11-11T18:50:42.155Z,34.63
2018-11-11T18:53:11.716Z,23.73
2018-11-11T18:55:41.279Z,42.97
2018-11-11T18:58:11.225Z,38.97
2018-11-11T19:00:41.199Z,22.27
2018-11-11T19:03:11.270Z,18.20
2018-11-11T19:05:41.236Z,15.20
2018-11-11T19:08:11.257Z,14.37
2018-11-11T19:10:41.284Z,11.47
2018-11-11T19:13:11.193Z,21.27
2018-11-11T19:15:41.050Z,15.90
2018-11-11T19:18:11.026Z,18.20
2018-11-11T19:20:41.038Z,19.47
2018-11-11T19:23:10.980Z,14.67
2018-11-11T19:25:40.965Z,18.27
2018-11-11T19:28:11.030Z,21.90
2018-11-11T19:30:41.016Z,16.87
2018-11-11T19:33:10.914Z,9.20
2018-11-11T19:35:40.735Z,16.23
2018-11-11T19:38:10.742Z,16.17
2018-11-11T19:40:40.702Z,20.00
2018-11-11T19:43:10.580Z,15.13
2018-11-11T19:45:40.784Z,18.87
2018-11-11T19:48:11.750Z,19.77
2018-11-11T19:50:41.651Z,15.07
2018-11-11T19:53:11.464Z,21.17
2018-11-11T19:55:41.378Z,19.47
2018-11-11T19:58:11.432Z,19.60
2018-11-11T20:00:41.312Z,17.33
2018-11-11T20:03:11.280Z,22.83
2018-11-11T20:05:41.323Z,19.40
2018-11-11T20:08:11.366Z,19.07
2018-11-11T20:10:41.380Z,24.00
2018-11-11T20:13:11.242Z,17.23
2018-11-11T20:15:41.608Z,22.80
2018-11-11T20:18:11.776Z,25.23
2018-11-11T20:20:41.895Z,31.23
2018-11-11T20:23:12.370Z,24.63
2018-11-11T20:25:42.223Z,19.30
2018-11-11T20:28:12.422Z,20.60
2018-11-11T20:30:42.248Z,22.57
2018-11-11T20:33:12.261Z,20.50
2018-11-11T20:35:42.126Z,16.33
2018-11-11T20:38:12.182Z,15.30
2018-11-11T20:40:42.518Z,11.83
2018-11-11T20:43:12.646Z,14.47
2018-11-11T20:45:42.612Z,18.00
2018-11-11T20:48:12.599Z,26.17
2018-11-11T20:50:42.500Z,21.73
2018-11-11T20:53:12.493Z,26.77
2018-11-11T20:55:42.505Z,21.73
2018-11-11T20:58:12.480Z,17.03
2018-11-11T21:00:42.390Z,26.90
2018-11-11T21:03:12.312Z,18.90
2018-11-11T21:05:42.295Z,20.80
2018-11-11T21:08:12.207Z,21.23
2018-11-11T21:10:42.182Z,18.73
2018-11-11T21:13:12.162Z,17.93
2018-11-11T21:15:43.156Z,17.03
2018-11-11T21:18:13.082Z,22.97
2018-11-11T21:20:43.011Z,24.77
2018-11-11T21:23:12.965Z,31.47
2018-11-11T21:25:42.923Z,23.63
2018-11-11T21:28:12.942Z,21.47
2018-11-11T21:30:42.763Z,18.97
2018-11-11T21:33:12.572Z,21.57
2018-11-11T21:35:42.504Z,21.73
2018-11-11T21:38:12.498Z,21.03
2018-11-11T21:40:42.451Z,25.77
2018-11-11T21:43:12.444Z,23.23
2018-11-11T21:45:42.221Z,17.13
2018-11-11T21:48:12.159Z,21.80
2018-11-11T21:50:42.188Z,18.97
2018-11-11T21:53:19.001Z,15.37
2018-11-11T21:55:48.871Z,15.37
2018-11-11T21:58:18.895Z,15.03
2018-11-11T22:00:48.941Z,14.03
2018-11-11T22:03:18.674Z,15.20
2018-11-11T22:05:48.641Z,19.37
2018-11-11T22:08:18.557Z,22.90
2018-11-11T22:10:48.564Z,18.67
2018-11-11T22:13:18.718Z,31.67
2018-11-11T22:15:48.640Z,26.37
2018-11-11T22:18:18.995Z,24.77
2018-11-11T22:20:49.284Z,20.97
2018-11-11T22:23:19.159Z,29.97
2018-11-11T22:25:49.074Z,18.23
2018-11-11T22:28:19.043Z,20.67
2018-11-11T22:30:49.015Z,24.03
2018-11-11T22:33:19.022Z,20.93
2018-11-11T22:35:48.943Z,20.20
2018-11-11T22:38:18.854Z,14.90
2018-11-11T22:40:48.807Z,19.43
2018-11-11T22:43:18.788Z,21.47
2018-11-11T22:45:48.844Z,20.63
2018-11-11T22:48:18.828Z,18.03
2018-11-11T22:50:48.687Z,20.87
2018-11-11T22:53:18.555Z,15.13
2018-11-11T22:55:48.467Z,21.10
2018-11-11T22:58:18.525Z,19.13
2018-11-11T23:00:53.411Z,19.70
2018-11-11T23:03:23.334Z,18.37
2018-11-11T23:05:53.281Z,21.63
2018-11-11T23:08:23.275Z,29.27
2018-11-11T23:10:53.190Z,29.37
2018-11-11T23:13:23.190Z,32.87
2018-11-11T23:15:53.153Z,32.33
2018-11-11T23:18:23.127Z,35.60
2018-11-11T23:20:53.314Z,34.70
2018-11-11T23:23:23.304Z,34.70
2018-11-11T23:25:53.284Z,29.73
2018-11-11T23:28:23.349Z,32.13
2018-11-11T23:30:53.216Z,28.33
2018-11-11T23:33:23.231Z,31.80
2018-11-11T23:35:53.183Z,22.03
2018-11-11T23:38:23.163Z,18.97
2018-11-11T23:40:53.079Z,28.57
2018-11-11T23:43:22.900Z,15.73
2018-11-11T23:45:52.916Z,15.30
2018-11-11T23:48:23.067Z,19.73
2018-11-11T23:50:52.942Z,25.83
2018-11-11T23:53:23.179Z,17.20
2018-11-11T23:55:53.222Z,18.80
2018-11-11T23:58:23.152Z,12.90
